sensor_id;sensor_type;location;lat;lon;timestamp;P1;durP1;ratioP1;P2;durP2;ratioP2
37715;SDS011;23562;50.540;12.504;2023-11-22T00:01:57;10.73;;;6.70;;
37715;SDS011;23562;50.540;12.504;2023-11-22T00:04:22;33.60;;;7.07;;
37715;SDS011;23562;50.540;12.504;2023-11-22T00:06:47;13.15;;;6.68;;
37715;SDS011;23562;50.540;12.504;2023-11-22T00:09:12;15.10;;;6.95;;
37715;SDS011;23562;50.540;12.504;2023-11-22T00:11:38;9.70;;;6.50;;
37715;SDS011;23562;50.540;12.504;2023-11-22T00:14:03;10.27;;;6.90;;
37715;SDS011;23562;50.540;12.504;2023-11-22T00:16:28;13.60;;;6.88;;
37715;SDS011;23562;50.540;12.504;2023-11-22T00:18:55;15.45;;;7.63;;
37715;SDS011;23562;50.540;12.504;2023-11-22T00:21:20;35.95;;;8.85;;
37715;SDS011;23562;50.540;12.504;2023-11-22T00:23:45;12.68;;;8.00;;
37715;SDS011;23562;50.540;12.504;2023-11-22T00:26:11;100.57;;;10.02;;
37715;SDS011;23562;50.540;12.504;2023-11-22T00:28:36;13.90;;;9.38;;
37715;SDS011;23562;50.540;12.504;2023-11-22T00:31:02;23.23;;;8.68;;
37715;SDS011;23562;50.540;12.504;2023-11-22T00:33:27;19.97;;;8.90;;
37715;SDS011;23562;50.540;12.504;2023-11-22T00:35:52;13.57;;;8.65;;
37715;SDS011;23562;50.540;12.504;2023-11-22T00:38:18;12.98;;;8.27;;
37715;SDS011;23562;50.540;12.504;2023-11-22T00:40:43;13.40;;;8.80;;
37715;SDS011;23562;50.540;12.504;2023-11-22T00:43:08;113.60;;;10.32;;
37715;SDS011;23562;50.540;12.504;2023-11-22T00:45:34;105.25;;;10.45;;
37715;SDS011;23562;50.540;12.504;2023-11-22T00:48:00;13.38;;;8.15;;
37715;SDS011;23562;50.540;12.504;2023-11-22T00:50:25;12.73;;;8.45;;
37715;SDS011;23562;50.540;12.504;2023-11-22T00:52:51;56.13;;;9.85;;
37715;SDS011;23562;50.540;12.504;2023-11-22T00:55:16;14.60;;;8.87;;
37715;SDS011;23562;50.540;12.504;2023-11-22T00:57:41;97.25;;;11.20;;
37715;SDS011;23562;50.540;12.504;2023-11-22T01:00:06;147.10;;;11.50;;
37715;SDS011;23562;50.540;12.504;2023-11-22T01:02:34;341.83;;;15.15;;
37715;SDS011;23562;50.540;12.504;2023-11-22T01:05:01;28.20;;;10.70;;
37715;SDS011;23562;50.540;12.504;2023-11-22T01:07:26;321.67;;;15.77;;
37715;SDS011;23562;50.540;12.504;2023-11-22T01:09:51;152.60;;;12.57;;
37715;SDS011;23562;50.540;12.504;2023-11-22T01:12:18;19.95;;;10.77;;
37715;SDS011;23562;50.540;12.504;2023-11-22T01:14:43;21.15;;;12.75;;
37715;SDS011;23562;50.540;12.504;2023-11-22T01:17:08;39.15;;;14.23;;
37715;SDS011;23562;50.540;12.504;2023-11-22T01:19:33;24.00;;;13.25;;
37715;SDS011;23562;50.540;12.504;2023-11-22T01:21:59;247.05;;;16.27;;
37715;SDS011;23562;50.540;12.504;2023-11-22T01:24:24;130.05;;;16.02;;
37715;SDS011;23562;50.540;12.504;2023-11-22T01:26:51;142.35;;;15.00;;
37715;SDS011;23562;50.540;12.504;2023-11-22T01:29:16;24.55;;;14.80;;
37715;SDS011;23562;50.540;12.504;2023-11-22T01:31:41;83.07;;;13.88;;
37715;SDS011;23562;50.540;12.504;2023-11-22T01:34:08;20.58;;;12.07;;
37715;SDS011;23562;50.540;12.504;2023-11-22T01:36:33;25.75;;;13.10;;
37715;SDS011;23562;50.540;12.504;2023-11-22T01:38:58;22.07;;;13.57;;
37715;SDS011;23562;50.540;12.504;2023-11-22T01:41:23;521.27;;;20.70;;
37715;SDS011;23562;50.540;12.504;2023-11-22T01:43:49;27.13;;;15.05;;
37715;SDS011;23562;50.540;12.504;2023-11-22T01:46:22;229.32;;;16.27;;
37715;SDS011;23562;50.540;12.504;2023-11-22T01:48:48;54.50;;;14.55;;
37715;SDS011;23562;50.540;12.504;2023-11-22T01:51:13;48.37;;;14.73;;
37715;SDS011;23562;50.540;12.504;2023-11-22T01:53:39;129.57;;;16.35;;
37715;SDS011;23562;50.540;12.504;2023-11-22T01:56:04;26.20;;;14.77;;
37715;SDS011;23562;50.540;12.504;2023-11-22T01:58:29;300.80;;;20.83;;
37715;SDS011;23562;50.540;12.504;2023-11-22T02:00:54;31.00;;;16.00;;
37715;SDS011;23562;50.540;12.504;2023-11-22T02:03:19;37.38;;;16.85;;
37715;SDS011;23562;50.540;12.504;2023-11-22T02:05:45;93.88;;;16.27;;
37715;SDS011;23562;50.540;12.504;2023-11-22T02:08:11;56.80;;;15.85;;
37715;SDS011;23562;50.540;12.504;2023-11-22T02:10:37;28.63;;;15.30;;
37715;SDS011;23562;50.540;12.504;2023-11-22T02:13:03;46.63;;;15.07;;
37715;SDS011;23562;50.540;12.504;2023-11-22T02:15:30;30.25;;;14.20;;
37715;SDS011;23562;50.540;12.504;2023-11-22T02:17:55;33.28;;;13.50;;
37715;SDS011;23562;50.540;12.504;2023-11-22T02:20:20;150.83;;;15.57;;
37715;SDS011;23562;50.540;12.504;2023-11-22T02:22:46;29.40;;;12.65;;
37715;SDS011;23562;50.540;12.504;2023-11-22T02:25:12;131.63;;;16.45;;
37715;SDS011;23562;50.540;12.504;2023-11-22T02:27:37;24.13;;;12.37;;
37715;SDS011;23562;50.540;12.504;2023-11-22T02:30:02;60.58;;;14.18;;
37715;SDS011;23562;50.540;12.504;2023-11-22T02:32:30;152.70;;;16.30;;
37715;SDS011;23562;50.540;12.504;2023-11-22T02:34:55;54.13;;;13.67;;
37715;SDS011;23562;50.540;12.504;2023-11-22T02:37:20;163.75;;;14.75;;
37715;SDS011;23562;50.540;12.504;2023-11-22T02:39:54;23.55;;;11.70;;
37715;SDS011;23562;50.540;12.504;2023-11-22T02:42:20;27.60;;;13.40;;
37715;SDS011;23562;50.540;12.504;2023-11-22T02:44:45;31.00;;;15.02;;
37715;SDS011;23562;50.540;12.504;2023-11-22T02:47:11;261.83;;;15.68;;
37715;SDS011;23562;50.540;12.504;2023-11-22T02:49:36;28.83;;;13.10;;
37715;SDS011;23562;50.540;12.504;2023-11-22T02:52:01;24.67;;;12.02;;
37715;SDS011;23562;50.540;12.504;2023-11-22T02:54:26;95.15;;;13.30;;
37715;SDS011;23562;50.540;12.504;2023-11-22T02:56:51;71.68;;;13.35;;
37715;SDS011;23562;50.540;12.504;2023-11-22T02:59:16;26.30;;;12.83;;
37715;SDS011;23562;50.540;12.504;2023-11-22T03:01:43;61.83;;;12.88;;
37715;SDS011;23562;50.540;12.504;2023-11-22T03:04:10;48.72;;;12.90;;
37715;SDS011;23562;50.540;12.504;2023-11-22T03:06:36;53.15;;;11.15;;
37715;SDS011;23562;50.540;12.504;2023-11-22T03:09:01;24.83;;;12.87;;
37715;SDS011;23562;50.540;12.504;2023-11-22T03:11:27;26.05;;;12.85;;
37715;SDS011;23562;50.540;12.504;2023-11-22T03:13:52;51.47;;;15.20;;
37715;SDS011;23562;50.540;12.504;2023-11-22T03:16:17;50.75;;;15.05;;
37715;SDS011;23562;50.540;12.504;2023-11-22T03:18:43;33.83;;;15.27;;
37715;SDS011;23562;50.540;12.504;2023-11-22T03:21:08;29.77;;;13.23;;
37715;SDS011;23562;50.540;12.504;2023-11-22T03:23:34;31.48;;;14.50;;
37715;SDS011;23562;50.540;12.504;2023-11-22T03:25:59;28.88;;;15.05;;
37715;SDS011;23562;50.540;12.504;2023-11-22T03:28:26;35.25;;;16.63;;
37715;SDS011;23562;50.540;12.504;2023-11-22T03:30:52;33.95;;;15.48;;
37715;SDS011;23562;50.540;12.504;2023-11-22T03:33:17;34.20;;;16.33;;
37715;SDS011;23562;50.540;12.504;2023-11-22T03:35:42;35.63;;;17.63;;
37715;SDS011;23562;50.540;12.504;2023-11-22T03:38:07;41.53;;;19.55;;
37715;SDS011;23562;50.540;12.504;2023-11-22T03:40:33;39.15;;;17.92;;
37715;SDS011;23562;50.540;12.504;2023-11-22T03:42:58;38.53;;;17.85;;
37715;SDS011;23562;50.540;12.504;2023-11-22T03:45:23;38.13;;;18.45;;
37715;SDS011;23562;50.540;12.504;2023-11-22T03:47:49;46.67;;;20.48;;
37715;SDS011;23562;50.540;12.504;2023-11-22T03:50:14;47.38;;;20.63;;
37715;SDS011;23562;50.540;12.504;2023-11-22T03:52:39;49.50;;;22.02;;
37715;SDS011;23562;50.540;12.504;2023-11-22T03:55:05;53.28;;;20.92;;
37715;SDS011;23562;50.540;12.504;2023-11-22T03:57:30;41.60;;;17.75;;
37715;SDS011;23562;50.540;12.504;2023-11-22T03:59:55;59.80;;;19.83;;
37715;SDS011;23562;50.540;12.504;2023-11-22T04:02:21;38.08;;;18.70;;
37715;SDS011;23562;50.540;12.504;2023-11-22T04:04:46;36.22;;;17.70;;
37715;SDS011;23562;50.540;12.504;2023-11-22T04:07:11;38.47;;;17.02;;
37715;SDS011;23562;50.540;12.504;2023-11-22T04:09:37;58.55;;;17.50;;
37715;SDS011;23562;50.540;12.504;2023-11-22T04:12:02;35.80;;;17.40;;
37715;SDS011;23562;50.540;12.504;2023-11-22T04:14:29;36.63;;;16.92;;
37715;SDS011;23562;50.540;12.504;2023-11-22T04:16:54;40.67;;;17.85;;
37715;SDS011;23562;50.540;12.504;2023-11-22T04:19:19;34.20;;;16.90;;
37715;SDS011;23562;50.540;12.504;2023-11-22T04:21:45;31.98;;;16.75;;
37715;SDS011;23562;50.540;12.504;2023-11-22T04:24:10;35.08;;;16.40;;
37715;SDS011;23562;50.540;12.504;2023-11-22T04:26:37;45.20;;;16.23;;
37715;SDS011;23562;50.540;12.504;2023-11-22T04:29:02;129.48;;;18.25;;
37715;SDS011;23562;50.540;12.504;2023-11-22T04:31:27;34.08;;;16.90;;
37715;SDS011;23562;50.540;12.504;2023-11-22T04:33:52;44.50;;;20.00;;
37715;SDS011;23562;50.540;12.504;2023-11-22T04:36:19;35.20;;;17.80;;
37715;SDS011;23562;50.540;12.504;2023-11-22T04:38:44;36.30;;;17.53;;
37715;SDS011;23562;50.540;12.504;2023-11-22T04:41:09;33.70;;;16.35;;
37715;SDS011;23562;50.540;12.504;2023-11-22T04:43:34;29.35;;;15.32;;
37715;SDS011;23562;50.540;12.504;2023-11-22T04:45:59;34.45;;;17.25;;
37715;SDS011;23562;50.540;12.504;2023-11-22T04:48:24;44.17;;;16.77;;
37715;SDS011;23562;50.540;12.504;2023-11-22T04:50:50;36.90;;;15.10;;
37715;SDS011;23562;50.540;12.504;2023-11-22T04:53:15;65.93;;;17.30;;
37715;SDS011;23562;50.540;12.504;2023-11-22T04:55:40;34.87;;;16.30;;
37715;SDS011;23562;50.540;12.504;2023-11-22T04:58:06;34.65;;;17.05;;
37715;SDS011;23562;50.540;12.504;2023-11-22T05:00:31;31.60;;;16.45;;
37715;SDS011;23562;50.540;12.504;2023-11-22T05:02:56;35.40;;;17.37;;
37715;SDS011;23562;50.540;12.504;2023-11-22T05:05:21;32.17;;;15.75;;
37715;SDS011;23562;50.540;12.504;2023-11-22T05:07:47;32.88;;;15.55;;
37715;SDS011;23562;50.540;12.504;2023-11-22T05:10:12;158.35;;;16.85;;
37715;SDS011;23562;50.540;12.504;2023-11-22T05:12:37;104.57;;;17.70;;
37715;SDS011;23562;50.540;12.504;2023-11-22T05:15:03;56.75;;;16.33;;
37715;SDS011;23562;50.540;12.504;2023-11-22T05:17:28;30.67;;;16.13;;
37715;SDS011;23562;50.540;12.504;2023-11-22T05:19:53;30.60;;;16.87;;
37715;SDS011;23562;50.540;12.504;2023-11-22T05:22:19;34.97;;;17.10;;
37715;SDS011;23562;50.540;12.504;2023-11-22T05:24:44;31.85;;;16.75;;
37715;SDS011;23562;50.540;12.504;2023-11-22T05:27:09;30.48;;;15.75;;
37715;SDS011;23562;50.540;12.504;2023-11-22T05:29:35;31.85;;;16.50;;
37715;SDS011;23562;50.540;12.504;2023-11-22T05:32:00;34.40;;;16.60;;
37715;SDS011;23562;50.540;12.504;2023-11-22T05:34:25;38.85;;;16.77;;
37715;SDS011;23562;50.540;12.504;2023-11-22T05:36:50;34.73;;;16.93;;
37715;SDS011;23562;50.540;12.504;2023-11-22T05:39:15;35.80;;;15.30;;
37715;SDS011;23562;50.540;12.504;2023-11-22T05:41:42;40.22;;;16.02;;
37715;SDS011;23562;50.540;12.504;2023-11-22T05:44:08;34.47;;;16.95;;
37715;SDS011;23562;50.540;12.504;2023-11-22T05:46:33;29.57;;;15.73;;
37715;SDS011;23562;50.540;12.504;2023-11-22T05:48:58;33.22;;;15.45;;
37715;SDS011;23562;50.540;12.504;2023-11-22T05:51:25;33.58;;;14.80;;
37715;SDS011;23562;50.540;12.504;2023-11-22T05:53:50;35.42;;;16.13;;
37715;SDS011;23562;50.540;12.504;2023-11-22T05:56:15;138.23;;;17.55;;
37715;SDS011;23562;50.540;12.504;2023-11-22T05:58:41;39.50;;;15.88;;
37715;SDS011;23562;50.540;12.504;2023-11-22T06:01:07;35.60;;;15.68;;
37715;SDS011;23562;50.540;12.504;2023-11-22T06:03:33;32.47;;;16.15;;
37715;SDS011;23562;50.540;12.504;2023-11-22T06:05:58;39.58;;;15.55;;
37715;SDS011;23562;50.540;12.504;2023-11-22T06:08:24;34.08;;;16.42;;
37715;SDS011;23562;50.540;12.504;2023-11-22T06:10:50;36.20;;;16.33;;
37715;SDS011;23562;50.540;12.504;2023-11-22T06:13:16;33.78;;;15.40;;
37715;SDS011;23562;50.540;12.504;2023-11-22T06:15:41;33.07;;;16.50;;
37715;SDS011;23562;50.540;12.504;2023-11-22T06:18:07;34.97;;;15.75;;
37715;SDS011;23562;50.540;12.504;2023-11-22T06:20:32;39.70;;;17.25;;
37715;SDS011;23562;50.540;12.504;2023-11-22T06:22:58;35.25;;;17.65;;
37715;SDS011;23562;50.540;12.504;2023-11-22T06:25:23;34.28;;;15.55;;
37715;SDS011;23562;50.540;12.504;2023-11-22T06:27:48;32.25;;;15.30;;
37715;SDS011;23562;50.540;12.504;2023-11-22T06:30:13;33.77;;;16.97;;
37715;SDS011;23562;50.540;12.504;2023-11-22T06:32:39;30.98;;;16.17;;
37715;SDS011;23562;50.540;12.504;2023-11-22T06:35:19;33.85;;;16.40;;
37715;SDS011;23562;50.540;12.504;2023-11-22T06:37:54;33.85;;;17.25;;
37715;SDS011;23562;50.540;12.504;2023-11-22T06:40:19;34.85;;;17.75;;
37715;SDS011;23562;50.540;12.504;2023-11-22T06:42:45;42.38;;;19.40;;
37715;SDS011;23562;50.540;12.504;2023-11-22T06:45:25;40.15;;;18.38;;
37715;SDS011;23562;50.540;12.504;2023-11-22T06:47:50;34.65;;;16.52;;
37715;SDS011;23562;50.540;12.504;2023-11-22T06:50:20;33.22;;;16.13;;
37715;SDS011;23562;50.540;12.504;2023-11-22T06:52:45;31.88;;;17.17;;
37715;SDS011;23562;50.540;12.504;2023-11-22T06:57:43;52.03;;;23.17;;
37715;SDS011;23562;50.540;12.504;2023-11-22T07:00:08;51.78;;;24.17;;
37715;SDS011;23562;50.540;12.504;2023-11-22T07:02:34;45.03;;;21.35;;
37715;SDS011;23562;50.540;12.504;2023-11-22T07:05:17;51.17;;;21.27;;
37715;SDS011;23562;50.540;12.504;2023-11-22T07:07:43;267.30;;;64.10;;
37715;SDS011;23562;50.540;12.504;2023-11-22T07:10:09;53.63;;;22.67;;
37715;SDS011;23562;50.540;12.504;2023-11-22T07:12:36;39.10;;;19.08;;
37715;SDS011;23562;50.540;12.504;2023-11-22T07:15:01;57.58;;;26.33;;
37715;SDS011;23562;50.540;12.504;2023-11-22T07:17:27;41.55;;;20.88;;
37715;SDS011;23562;50.540;12.504;2023-11-22T07:19:53;34.70;;;18.45;;
37715;SDS011;23562;50.540;12.504;2023-11-22T07:24:51;40.10;;;18.92;;
37715;SDS011;23562;50.540;12.504;2023-11-22T07:27:17;36.97;;;16.73;;
37715;SDS011;23562;50.540;12.504;2023-11-22T07:29:43;47.88;;;18.38;;
37715;SDS011;23562;50.540;12.504;2023-11-22T07:32:09;37.53;;;17.73;;
37715;SDS011;23562;50.540;12.504;2023-11-22T07:34:35;40.58;;;17.50;;
37715;SDS011;23562;50.540;12.504;2023-11-22T07:37:00;35.63;;;17.48;;
37715;SDS011;23562;50.540;12.504;2023-11-22T07:39:26;82.13;;;18.98;;
37715;SDS011;23562;50.540;12.504;2023-11-22T07:41:52;48.72;;;19.65;;
37715;SDS011;23562;50.540;12.504;2023-11-22T07:44:17;43.92;;;17.55;;
37715;SDS011;23562;50.540;12.504;2023-11-22T07:46:43;59.23;;;18.10;;
37715;SDS011;23562;50.540;12.504;2023-11-22T07:49:11;40.15;;;17.60;;
37715;SDS011;23562;50.540;12.504;2023-11-22T07:51:36;38.08;;;18.52;;
37715;SDS011;23562;50.540;12.504;2023-11-22T07:54:02;38.92;;;19.48;;
37715;SDS011;23562;50.540;12.504;2023-11-22T07:56:27;38.40;;;18.55;;
37715;SDS011;23562;50.540;12.504;2023-11-22T07:58:52;40.03;;;20.27;;
37715;SDS011;23562;50.540;12.504;2023-11-22T08:01:18;48.58;;;21.08;;
37715;SDS011;23562;50.540;12.504;2023-11-22T08:03:43;43.50;;;20.80;;
37715;SDS011;23562;50.540;12.504;2023-11-22T08:06:10;33.90;;;17.08;;
37715;SDS011;23562;50.540;12.504;2023-11-22T08:08:35;35.42;;;17.25;;
37715;SDS011;23562;50.540;12.504;2023-11-22T08:11:04;37.33;;;18.20;;
37715;SDS011;23562;50.540;12.504;2023-11-22T08:13:29;38.00;;;18.70;;
37715;SDS011;23562;50.540;12.504;2023-11-22T08:15:55;41.92;;;20.52;;
37715;SDS011;23562;50.540;12.504;2023-11-22T08:18:21;81.90;;;36.15;;
37715;SDS011;23562;50.540;12.504;2023-11-22T08:20:47;76.97;;;35.38;;
37715;SDS011;23562;50.540;12.504;2023-11-22T08:23:12;111.78;;;45.33;;
37715;SDS011;23562;50.540;12.504;2023-11-22T08:25:39;94.18;;;38.47;;
37715;SDS011;23562;50.540;12.504;2023-11-22T08:28:04;83.05;;;33.45;;
37715;SDS011;23562;50.540;12.504;2023-11-22T08:30:32;52.88;;;24.40;;
37715;SDS011;23562;50.540;12.504;2023-11-22T08:33:00;46.40;;;20.90;;
37715;SDS011;23562;50.540;12.504;2023-11-22T08:35:25;65.38;;;16.27;;
37715;SDS011;23562;50.540;12.504;2023-11-22T08:37:51;76.90;;;18.10;;
37715;SDS011;23562;50.540;12.504;2023-11-22T08:40:16;50.53;;;23.65;;
37715;SDS011;23562;50.540;12.504;2023-11-22T08:42:45;125.93;;;41.55;;
37715;SDS011;23562;50.540;12.504;2023-11-22T08:45:10;61.72;;;28.95;;
37715;SDS011;23562;50.540;12.504;2023-11-22T08:47:36;44.05;;;21.98;;
37715;SDS011;23562;50.540;12.504;2023-11-22T08:50:02;47.47;;;22.60;;
37715;SDS011;23562;50.540;12.504;2023-11-22T08:52:28;41.17;;;21.15;;
37715;SDS011;23562;50.540;12.504;2023-11-22T08:54:55;35.42;;;18.02;;
37715;SDS011;23562;50.540;12.504;2023-11-22T08:57:20;43.85;;;21.20;;
37715;SDS011;23562;50.540;12.504;2023-11-22T08:59:46;49.77;;;24.40;;
37715;SDS011;23562;50.540;12.504;2023-11-22T09:02:12;40.90;;;21.30;;
37715;SDS011;23562;50.540;12.504;2023-11-22T09:04:38;38.30;;;19.95;;
37715;SDS011;23562;50.540;12.504;2023-11-22T09:07:03;50.42;;;24.00;;
37715;SDS011;23562;50.540;12.504;2023-11-22T09:09:28;68.13;;;31.95;;
37715;SDS011;23562;50.540;12.504;2023-11-22T09:11:59;113.82;;;51.00;;
37715;SDS011;23562;50.540;12.504;2023-11-22T09:14:24;119.72;;;50.40;;
37715;SDS011;23562;50.540;12.504;2023-11-22T09:16:52;95.18;;;44.70;;
37715;SDS011;23562;50.540;12.504;2023-11-22T09:19:24;90.72;;;45.05;;
37715;SDS011;23562;50.540;12.504;2023-11-22T09:21:49;73.57;;;36.83;;
37715;SDS011;23562;50.540;12.504;2023-11-22T09:24:15;92.72;;;40.72;;
37715;SDS011;23562;50.540;12.504;2023-11-22T09:26:40;99.82;;;46.90;;
37715;SDS011;23562;50.540;12.504;2023-11-22T09:29:07;124.47;;;58.03;;
37715;SDS011;23562;50.540;12.504;2023-11-22T09:31:32;142.27;;;56.70;;
37715;SDS011;23562;50.540;12.504;2023-11-22T09:33:57;73.13;;;35.25;;
37715;SDS011;23562;50.540;12.504;2023-11-22T09:36:22;59.83;;;33.55;;
37715;SDS011;23562;50.540;12.504;2023-11-22T09:38:50;40.20;;;21.95;;
37715;SDS011;23562;50.540;12.504;2023-11-22T09:41:16;41.05;;;21.17;;
37715;SDS011;23562;50.540;12.504;2023-11-22T09:43:42;36.83;;;19.38;;
37715;SDS011;23562;50.540;12.504;2023-11-22T09:46:09;37.72;;;20.55;;
37715;SDS011;23562;50.540;12.504;2023-11-22T09:48:36;87.57;;;42.83;;
37715;SDS011;23562;50.540;12.504;2023-11-22T09:51:03;39.63;;;20.88;;
37715;SDS011;23562;50.540;12.504;2023-11-22T09:53:33;33.85;;;17.38;;
37715;SDS011;23562;50.540;12.504;2023-11-22T09:55:59;32.42;;;17.58;;
37715;SDS011;23562;50.540;12.504;2023-11-22T09:58:24;33.25;;;15.93;;
37715;SDS011;23562;50.540;12.504;2023-11-22T10:00:50;30.33;;;16.75;;
37715;SDS011;23562;50.540;12.504;2023-11-22T10:03:15;33.80;;;20.52;;
37715;SDS011;23562;50.540;12.504;2023-11-22T10:05:43;25.85;;;14.10;;
37715;SDS011;23562;50.540;12.504;2023-11-22T10:08:08;37.00;;;19.43;;
37715;SDS011;23562;50.540;12.504;2023-11-22T10:10:34;36.60;;;18.10;;
37715;SDS011;23562;50.540;12.504;2023-11-22T10:13:01;32.55;;;16.33;;
37715;SDS011;23562;50.540;12.504;2023-11-22T10:15:27;34.13;;;16.55;;
37715;SDS011;23562;50.540;12.504;2023-11-22T10:17:56;32.22;;;16.92;;
37715;SDS011;23562;50.540;12.504;2023-11-22T10:20:23;28.27;;;15.48;;
37715;SDS011;23562;50.540;12.504;2023-11-22T10:22:48;30.15;;;15.70;;
37715;SDS011;23562;50.540;12.504;2023-11-22T10:25:16;23.20;;;13.60;;
37715;SDS011;23562;50.540;12.504;2023-11-22T10:27:47;39.70;;;21.80;;
37715;SDS011;23562;50.540;12.504;2023-11-22T10:30:12;42.50;;;25.20;;
37715;SDS011;23562;50.540;12.504;2023-11-22T10:32:37;34.60;;;18.55;;
37715;SDS011;23562;50.540;12.504;2023-11-22T10:35:04;35.03;;;19.33;;
37715;SDS011;23562;50.540;12.504;2023-11-22T10:37:30;29.38;;;16.42;;
37715;SDS011;23562;50.540;12.504;2023-11-22T10:39:56;28.42;;;16.95;;
37715;SDS011;23562;50.540;12.504;2023-11-22T10:42:21;26.88;;;14.15;;
37715;SDS011;23562;50.540;12.504;2023-11-22T10:44:47;25.10;;;13.77;;
37715;SDS011;23562;50.540;12.504;2023-11-22T10:47:13;22.27;;;13.03;;
37715;SDS011;23562;50.540;12.504;2023-11-22T10:49:39;32.55;;;17.17;;
37715;SDS011;23562;50.540;12.504;2023-11-22T10:52:05;37.75;;;17.52;;
37715;SDS011;23562;50.540;12.504;2023-11-22T10:54:32;100.55;;;40.88;;
37715;SDS011;23562;50.540;12.504;2023-11-22T10:56:59;78.43;;;38.10;;
37715;SDS011;23562;50.540;12.504;2023-11-22T10:59:26;35.03;;;19.00;;
37715;SDS011;23562;50.540;12.504;2023-11-22T11:01:52;30.10;;;16.02;;
37715;SDS011;23562;50.540;12.504;2023-11-22T11:04:27;28.17;;;14.68;;
37715;SDS011;23562;50.540;12.504;2023-11-22T11:06:54;27.33;;;14.75;;
37715;SDS011;23562;50.540;12.504;2023-11-22T11:09:22;24.25;;;13.43;;
37715;SDS011;23562;50.540;12.504;2023-11-22T11:11:50;30.20;;;15.65;;
37715;SDS011;23562;50.540;12.504;2023-11-22T11:14:15;26.13;;;15.13;;
37715;SDS011;23562;50.540;12.504;2023-11-22T11:16:42;27.27;;;13.95;;
37715;SDS011;23562;50.540;12.504;2023-11-22T11:21:38;23.77;;;11.10;;
37715;SDS011;23562;50.540;12.504;2023-11-22T11:24:03;22.65;;;13.43;;
37715;SDS011;23562;50.540;12.504;2023-11-22T11:26:31;46.80;;;25.20;;
37715;SDS011;23562;50.540;12.504;2023-11-22T11:28:56;44.88;;;23.92;;
37715;SDS011;23562;50.540;12.504;2023-11-22T11:31:21;26.58;;;14.57;;
37715;SDS011;23562;50.540;12.504;2023-11-22T11:36:12;21.97;;;12.87;;
37715;SDS011;23562;50.540;12.504;2023-11-22T11:38:39;20.73;;;11.27;;
37715;SDS011;23562;50.540;12.504;2023-11-22T11:41:11;23.98;;;12.90;;
37715;SDS011;23562;50.540;12.504;2023-11-22T11:43:40;21.85;;;12.88;;
37715;SDS011;23562;50.540;12.504;2023-11-22T11:46:12;21.50;;;12.38;;
37715;SDS011;23562;50.540;12.504;2023-11-22T11:48:38;22.80;;;12.75;;
37715;SDS011;23562;50.540;12.504;2023-11-22T11:51:06;22.98;;;12.85;;
37715;SDS011;23562;50.540;12.504;2023-11-22T11:53:31;22.47;;;12.60;;
37715;SDS011;23562;50.540;12.504;2023-11-22T11:56:14;20.70;;;12.27;;
37715;SDS011;23562;50.540;12.504;2023-11-22T11:58:43;17.40;;;10.73;;
37715;SDS011;23562;50.540;12.504;2023-11-22T12:01:08;23.38;;;11.57;;
37715;SDS011;23562;50.540;12.504;2023-11-22T12:03:40;24.15;;;13.50;;
37715;SDS011;23562;50.540;12.504;2023-11-22T12:06:06;26.38;;;14.65;;
37715;SDS011;23562;50.540;12.504;2023-11-22T12:08:31;22.30;;;12.00;;
37715;SDS011;23562;50.540;12.504;2023-11-22T12:11:01;22.20;;;12.27;;
37715;SDS011;23562;50.540;12.504;2023-11-22T12:13:27;22.88;;;12.80;;
37715;SDS011;23562;50.540;12.504;2023-11-22T12:15:52;23.53;;;12.47;;
37715;SDS011;23562;50.540;12.504;2023-11-22T12:18:21;18.95;;;10.63;;
37715;SDS011;23562;50.540;12.504;2023-11-22T12:20:56;19.35;;;10.90;;
37715;SDS011;23562;50.540;12.504;2023-11-22T12:23:22;20.63;;;10.90;;
37715;SDS011;23562;50.540;12.504;2023-11-22T12:25:57;30.30;;;17.13;;
37715;SDS011;23562;50.540;12.504;2023-11-22T12:28:29;24.10;;;13.68;;
37715;SDS011;23562;50.540;12.504;2023-11-22T12:30:54;19.88;;;12.00;;
37715;SDS011;23562;50.540;12.504;2023-11-22T12:33:20;25.80;;;12.77;;
37715;SDS011;23562;50.540;12.504;2023-11-22T12:35:46;20.98;;;12.10;;
37715;SDS011;23562;50.540;12.504;2023-11-22T12:38:12;23.70;;;11.57;;
37715;SDS011;23562;50.540;12.504;2023-11-22T12:40:37;19.85;;;10.48;;
37715;SDS011;23562;50.540;12.504;2023-11-22T12:43:03;17.83;;;10.30;;
37715;SDS011;23562;50.540;12.504;2023-11-22T12:45:33;17.08;;;9.82;;
37715;SDS011;23562;50.540;12.504;2023-11-22T12:48:15;16.95;;;9.85;;
37715;SDS011;23562;50.540;12.504;2023-11-22T12:50:44;16.67;;;9.60;;
37715;SDS011;23562;50.540;12.504;2023-11-22T12:53:12;17.73;;;9.85;;
37715;SDS011;23562;50.540;12.504;2023-11-22T12:55:45;31.23;;;18.88;;
37715;SDS011;23562;50.540;12.504;2023-11-22T12:58:11;61.38;;;34.42;;
37715;SDS011;23562;50.540;12.504;2023-11-22T13:00:38;72.35;;;41.72;;
37715;SDS011;23562;50.540;12.504;2023-11-22T13:03:04;36.92;;;20.73;;
37715;SDS011;23562;50.540;12.504;2023-11-22T13:05:30;25.17;;;14.25;;
37715;SDS011;23562;50.540;12.504;2023-11-22T13:07:55;21.38;;;13.32;;
37715;SDS011;23562;50.540;12.504;2023-11-22T13:10:20;24.38;;;13.48;;
37715;SDS011;23562;50.540;12.504;2023-11-22T13:12:50;24.43;;;13.33;;
37715;SDS011;23562;50.540;12.504;2023-11-22T13:15:15;32.95;;;20.70;;
37715;SDS011;23562;50.540;12.504;2023-11-22T13:17:41;26.33;;;16.65;;
37715;SDS011;23562;50.540;12.504;2023-11-22T13:20:06;24.38;;;14.10;;
37715;SDS011;23562;50.540;12.504;2023-11-22T13:22:38;25.58;;;14.65;;
37715;SDS011;23562;50.540;12.504;2023-11-22T13:25:03;25.70;;;15.07;;
37715;SDS011;23562;50.540;12.504;2023-11-22T13:27:31;25.70;;;14.50;;
37715;SDS011;23562;50.540;12.504;2023-11-22T13:29:56;27.08;;;15.07;;
37715;SDS011;23562;50.540;12.504;2023-11-22T13:32:23;24.67;;;15.20;;
37715;SDS011;23562;50.540;12.504;2023-11-22T13:34:49;24.77;;;14.68;;
37715;SDS011;23562;50.540;12.504;2023-11-22T13:37:23;26.83;;;15.10;;
37715;SDS011;23562;50.540;12.504;2023-11-22T13:42:25;22.67;;;12.20;;
37715;SDS011;23562;50.540;12.504;2023-11-22T13:44:50;22.77;;;11.95;;
37715;SDS011;23562;50.540;12.504;2023-11-22T13:47:16;21.75;;;12.15;;
37715;SDS011;23562;50.540;12.504;2023-11-22T13:49:41;21.33;;;12.10;;
37715;SDS011;23562;50.540;12.504;2023-11-22T13:52:08;24.15;;;12.70;;
37715;SDS011;23562;50.540;12.504;2023-11-22T13:54:33;20.27;;;12.50;;
37715;SDS011;23562;50.540;12.504;2023-11-22T13:59:43;21.65;;;11.55;;
37715;SDS011;23562;50.540;12.504;2023-11-22T14:02:08;21.73;;;11.70;;
37715;SDS011;23562;50.540;12.504;2023-11-22T14:04:33;25.43;;;14.30;;
37715;SDS011;23562;50.540;12.504;2023-11-22T14:06:59;28.13;;;14.95;;
37715;SDS011;23562;50.540;12.504;2023-11-22T14:09:25;37.50;;;17.92;;
37715;SDS011;23562;50.540;12.504;2023-11-22T14:11:50;126.53;;;49.43;;
37715;SDS011;23562;50.540;12.504;2023-11-22T14:14:15;28.83;;;15.55;;
37715;SDS011;23562;50.540;12.504;2023-11-22T14:16:40;28.58;;;16.08;;
37715;SDS011;23562;50.540;12.504;2023-11-22T14:19:09;23.70;;;12.73;;